createdAt,value
2018-08-27T00:00:51.908Z,9.3
2018-08-27T00:01:51.818Z,9.3
2018-08-27T00:02:52.184Z,9.3
2018-08-27T00:03:52.342Z,9.3
2018-08-27T00:04:52.271Z,9.3
2018-08-27T00:05:52.204Z,9.3
2018-08-27T00:06:52.116Z,9.3
2018-08-27T00:07:52.026Z,9.2
2018-08-27T00:08:51.946Z,9.2
2018-08-27T00:09:51.872Z,9.2
2018-08-27T00:10:51.774Z,9.3
2018-08-27T00:11:51.688Z,9.3
2018-08-27T00:12:52.054Z,9.3
2018-08-27T00:13:52.011Z,9.3
2018-08-27T00:14:51.937Z,9.3
2018-08-27T00:15:51.840Z,9.2
2018-08-27T00:16:51.744Z,9.2
2018-08-27T00:17:51.651Z,9.3
2018-08-27T00:18:51.578Z,9.3
2018-08-27T00:19:51.505Z,9.4
2018-08-27T00:20:51.402Z,9.3
2018-08-27T00:21:51.315Z,9.3
2018-08-27T00:22:51.688Z,9.2
2018-08-27T00:23:51.593Z,9.3
2018-08-27T00:24:51.556Z,9.3
2018-08-27T00:25:51.477Z,9.3
2018-08-27T00:26:51.415Z,9.3
2018-08-27T00:27:51.387Z,9.3
2018-08-27T00:28:51.284Z,9.3
2018-08-27T00:29:51.201Z,9.4
2018-08-27T00:30:51.137Z,9.3
2018-08-27T00:31:51.091Z,9.3
2018-08-27T00:32:51.461Z,9.3
2018-08-27T00:33:51.396Z,9.3
2018-08-27T00:34:51.312Z,9.3
2018-08-27T00:35:51.258Z,9.2
2018-08-27T00:36:51.185Z,9.3
2018-08-27T00:37:51.104Z,9.2
2018-08-27T00:38:51.013Z,9.2
2018-08-27T00:39:50.937Z,9.3
2018-08-27T00:40:50.858Z,9.4
2018-08-27T00:41:50.776Z,9.3
2018-08-27T00:42:51.139Z,9.3
2018-08-27T00:43:51.080Z,9.3
2018-08-27T00:44:51.016Z,9.4
2018-08-27T00:45:50.944Z,9.4
2018-08-27T00:46:50.892Z,9.4
2018-08-27T00:47:50.851Z,9.5
2018-08-27T00:48:50.772Z,9.5
2018-08-27T00:49:50.684Z,9.5
2018-08-27T00:50:50.604Z,9.4
2018-08-27T00:51:50.508Z,9.4
2018-08-27T00:52:50.905Z,9.4
2018-08-27T00:53:50.840Z,9.4
2018-08-27T00:54:50.758Z,9.4
2018-08-27T00:55:50.684Z,9.4
2018-08-27T00:56:50.603Z,9.4
2018-08-27T00:57:50.538Z,9.3
2018-08-27T00:58:50.470Z,9.3
2018-08-27T00:59:50.606Z,9.4
2018-08-27T01:00:50.535Z,9.4
2018-08-27T01:01:50.467Z,9.5
2018-08-27T01:02:50.912Z,9.5
2018-08-27T01:03:50.868Z,9.6
2018-08-27T01:04:50.799Z,9.7
2018-08-27T01:05:50.717Z,9.7
2018-08-27T01:06:50.630Z,9.6
2018-08-27T01:07:50.591Z,9.7
2018-08-27T01:08:50.509Z,9.8
2018-08-27T01:09:50.417Z,9.8
2018-08-27T01:10:50.350Z,9.7
2018-08-27T01:11:50.254Z,9.7
2018-08-27T01:12:50.585Z,9.6
2018-08-27T01:13:50.526Z,9.6
2018-08-27T01:14:50.674Z,9.6
2018-08-27T01:15:50.585Z,9.6
2018-08-27T01:16:50.547Z,9.6
2018-08-27T01:17:50.474Z,9.6
2018-08-27T01:18:50.387Z,9.6
2018-08-27T01:19:50.338Z,9.7
2018-08-27T01:20:50.245Z,9.7
2018-08-27T01:21:50.400Z,9.8
2018-08-27T01:22:51.156Z,9.8
2018-08-27T01:23:51.079Z,9.7
2018-08-27T01:24:51.050Z,9.7
2018-08-27T01:25:50.976Z,9.7
2018-08-27T01:26:50.903Z,9.7
2018-08-27T01:27:50.891Z,9.6
2018-08-27T01:28:50.841Z,9.6
2018-08-27T01:29:50.773Z,9.7
2018-08-27T01:30:50.755Z,9.6
2018-08-27T01:31:50.661Z,9.7
2018-08-27T01:32:52.252Z,9.8
2018-08-27T01:33:52.162Z,9.7
2018-08-27T01:34:52.113Z,9.7
2018-08-27T01:35:52.034Z,9.8
2018-08-27T01:36:51.975Z,9.8
2018-08-27T01:37:51.867Z,9.7
2018-08-27T01:38:51.770Z,9.7
2018-08-27T01:39:51.683Z,9.7
2018-08-27T01:41:00.481Z,9.7
2018-08-27T01:42:00.404Z,9.7
2018-08-27T01:43:00.779Z,9.6
2018-08-27T01:44:00.681Z,9.6
2018-08-27T01:45:00.613Z,9.5
2018-08-27T01:46:00.535Z,9.5
2018-08-27T01:47:00.480Z,9.5
2018-08-27T01:48:00.404Z,9.6
2018-08-27T01:49:00.331Z,9.6
2018-08-27T01:50:00.247Z,9.6
2018-08-27T01:51:03.883Z,9.5
2018-08-27T01:52:03.814Z,9.4
2018-08-27T01:53:04.186Z,9.4
2018-08-27T01:54:04.110Z,9.4
2018-08-27T01:55:04.039Z,9.4
2018-08-27T01:56:03.948Z,9.4
2018-08-27T01:57:03.955Z,9.4
2018-08-27T01:58:03.877Z,9.4
2018-08-27T01:59:03.784Z,9.4
2018-08-27T02:00:03.712Z,9.4
2018-08-27T02:01:03.877Z,9.4
2018-08-27T02:02:03.812Z,9.3
2018-08-27T02:03:04.173Z,9.3
2018-08-27T02:04:04.152Z,9.3
2018-08-27T02:05:04.063Z,9.3
2018-08-27T02:06:03.993Z,9.3
2018-08-27T02:07:03.956Z,9.4
2018-08-27T02:08:03.865Z,9.3
2018-08-27T02:09:06.542Z,9.3
2018-08-27T02:10:06.480Z,9.2
2018-08-27T02:11:06.416Z,9.3
2018-08-27T02:12:06.345Z,9.3
2018-08-27T02:13:07.706Z,9.3
2018-08-27T02:14:07.846Z,9.3
2018-08-27T02:15:07.774Z,9.4
2018-08-27T02:16:07.689Z,9.4
2018-08-27T02:17:07.682Z,9.4
2018-08-27T02:18:07.581Z,9.4
2018-08-27T02:19:07.493Z,9.4
2018-08-27T02:20:07.405Z,9.4
2018-08-27T02:21:07.405Z,9.5
2018-08-27T02:22:07.343Z,9.5
2018-08-27T02:23:07.730Z,9.5
2018-08-27T02:24:07.662Z,9.6
2018-08-27T02:25:07.639Z,9.6
2018-08-27T02:26:07.544Z,9.5
2018-08-27T02:27:07.455Z,9.5
2018-08-27T02:28:07.384Z,9.5
2018-08-27T02:29:07.313Z,9.5
2018-08-27T02:30:07.454Z,9.5
2018-08-27T02:31:07.386Z,9.5
2018-08-27T02:32:07.323Z,9.5
2018-08-27T02:33:07.936Z,9.5
2018-08-27T02:34:07.836Z,9.6
2018-08-27T02:35:08.156Z,9.6
2018-08-27T02:36:08.623Z,9.6
2018-08-27T02:37:08.548Z,9.5
2018-08-27T02:38:08.553Z,9.6
2018-08-27T02:39:08.498Z,9.5
2018-08-27T02:40:08.414Z,9.5
2018-08-27T02:41:08.324Z,9.5
2018-08-27T02:42:08.249Z,9.5
2018-08-27T02:43:08.671Z,9.5
2018-08-27T02:44:08.830Z,9.5
2018-08-27T02:45:08.740Z,9.4
2018-08-27T02:46:08.690Z,9.4
2018-08-27T02:47:08.623Z,9.4
2018-08-27T02:48:08.602Z,9.4
2018-08-27T02:49:08.600Z,9.4
2018-08-27T02:50:08.567Z,9.4
2018-08-27T02:51:08.481Z,9.4
2018-08-27T02:52:08.401Z,9.4
2018-08-27T02:53:08.795Z,9.4
2018-08-27T02:54:08.705Z,9.3
2018-08-27T02:55:08.655Z,9.3
2018-08-27T02:56:08.561Z,9.4
2018-08-27T02:57:08.481Z,9.4
2018-08-27T02:58:08.394Z,9.4
2018-08-27T02:59:08.329Z,9.4
2018-08-27T03:00:08.263Z,9.4
2018-08-27T03:01:08.190Z,9.5
2018-08-27T03:02:08.143Z,9.5
2018-08-27T03:03:08.522Z,9.6
2018-08-27T03:04:08.443Z,9.6
2018-08-27T03:05:11.364Z,9.5
2018-08-27T03:06:11.275Z,9.5
2018-08-27T03:07:11.233Z,9.5
2018-08-27T03:08:11.178Z,9.5
2018-08-27T03:09:11.111Z,9.5
2018-08-27T03:10:11.023Z,9.5
2018-08-27T03:11:10.947Z,9.4
2018-08-27T03:12:10.860Z,9.5
2018-08-27T03:13:11.246Z,9.4
2018-08-27T03:14:11.176Z,9.5
2018-08-27T03:15:11.083Z,9.4
2018-08-27T03:16:11.002Z,9.5
2018-08-27T03:17:10.922Z,9.5
2018-08-27T03:18:10.838Z,9.4
2018-08-27T03:19:10.754Z,9.4
2018-08-27T03:20:10.687Z,9.3
2018-08-27T03:21:10.624Z,9.2
2018-08-27T03:22:10.540Z,9.3
2018-08-27T03:23:10.892Z,9.3
2018-08-27T03:24:10.815Z,9.3
2018-08-27T03:25:10.993Z,9.3
2018-08-27T03:26:11.161Z,9.2
2018-08-27T03:27:11.077Z,9.3
2018-08-27T03:28:11.228Z,9.2
2018-08-27T03:29:11.167Z,9.2
2018-08-27T03:30:11.091Z,9.1
2018-08-27T03:31:11.256Z,9.1
2018-08-27T03:32:11.212Z,9.1
2018-08-27T03:33:14.398Z,9.1
2018-08-27T03:34:14.558Z,9.1
2018-08-27T03:35:14.482Z,9.1
2018-08-27T03:36:18.326Z,9.2
2018-08-27T03:37:18.234Z,9.2
2018-08-27T03:38:23.817Z,9.3
2018-08-27T03:39:23.727Z,9.3
2018-08-27T03:40:23.667Z,9.2
2018-08-27T03:41:23.634Z,9.2
2018-08-27T03:42:27.366Z,9.2
2018-08-27T03:43:27.767Z,9.2
2018-08-27T03:44:27.684Z,9.1
2018-08-27T03:45:30.017Z,9.1
2018-08-27T03:46:29.969Z,9.2
2018-08-27T03:47:29.914Z,9.1
2018-08-27T03:48:31.010Z,9.1
2018-08-27T03:49:31.109Z,9.1
2018-08-27T03:50:31.051Z,9.1
2018-08-27T03:51:30.994Z,9.1
2018-08-27T03:52:30.930Z,9
2018-08-27T03:53:31.282Z,9
2018-08-27T03:54:31.689Z,9
2018-08-27T03:55:31.591Z,9
2018-08-27T03:56:31.500Z,8.9
2018-08-27T03:57:34.991Z,8.9
2018-08-27T03:58:34.944Z,9
2018-08-27T03:59:34.861Z,9
2018-08-27T04:00:35.007Z,9
2018-08-27T04:01:34.944Z,9
2018-08-27T04:02:34.852Z,8.9
2018-08-27T04:03:37.985Z,9
2018-08-27T04:04:37.890Z,9.1
2018-08-27T04:05:37.831Z,9.1
2018-08-27T04:06:37.777Z,9.1
2018-08-27T04:07:37.782Z,9.1
2018-08-27T04:08:37.717Z,9
2018-08-27T04:09:37.641Z,9
2018-08-27T04:10:37.546Z,9
2018-08-27T04:11:37.451Z,9
2018-08-27T04:12:37.413Z,8.9
2018-08-27T04:13:37.798Z,8.9
2018-08-27T04:14:37.731Z,9
2018-08-27T04:15:37.635Z,8.9
2018-08-27T04:16:37.545Z,9
2018-08-27T04:17:37.529Z,8.9
2018-08-27T04:18:37.437Z,9
2018-08-27T04:19:37.407Z,9
2018-08-27T04:20:37.315Z,9
2018-08-27T04:21:37.248Z,9.1
2018-08-27T04:22:37.187Z,9.1
2018-08-27T04:23:37.580Z,9.2
2018-08-27T04:24:37.501Z,9.2
2018-08-27T04:25:37.403Z,9.2
2018-08-27T04:26:37.350Z,9.1
2018-08-27T04:27:37.290Z,9.2
2018-08-27T04:28:37.407Z,9.2
2018-08-27T04:29:37.543Z,9.2
2018-08-27T04:30:37.482Z,9.2
2018-08-27T04:31:37.423Z,9.3
2018-08-27T04:32:37.358Z,9.2
2018-08-27T04:33:37.789Z,9.2
2018-08-27T04:34:37.703Z,9.2
2018-08-27T04:35:37.654Z,9.2
2018-08-27T04:36:37.563Z,9.3
2018-08-27T04:37:37.511Z,9.3
2018-08-27T04:38:37.458Z,9.3
2018-08-27T04:39:37.377Z,9.3
2018-08-27T04:40:37.306Z,9.2
2018-08-27T04:41:37.444Z,9.3
2018-08-27T04:42:37.623Z,9.2
2018-08-27T04:43:38.681Z,9.2
2018-08-27T04:44:39.635Z,9.3
2018-08-27T04:45:39.545Z,9.3
2018-08-27T04:46:39.487Z,9.3
2018-08-27T04:47:39.531Z,9.3
2018-08-27T04:48:39.490Z,9.2
2018-08-27T04:49:39.424Z,9.2
2018-08-27T04:50:39.361Z,9.2
2018-08-27T04:51:39.279Z,9.2
2018-08-27T04:52:39.275Z,9.3
2018-08-27T04:53:39.656Z,9.3
2018-08-27T04:54:39.590Z,9.4
2018-08-27T04:55:39.542Z,9.4
2018-08-27T04:56:39.502Z,9.4
2018-08-27T04:57:39.433Z,9.4
2018-08-27T04:58:42.381Z,9.4
2018-08-27T04:59:42.396Z,9.3
2018-08-27T05:00:42.326Z,9.4
2018-08-27T05:01:42.491Z,9.4
2018-08-27T05:02:42.418Z,9.4
2018-08-27T05:03:45.699Z,9.4
2018-08-27T05:04:45.638Z,9.4
2018-08-27T05:05:48.556Z,9.5
2018-08-27T05:06:48.534Z,9.5
2018-08-27T05:07:48.439Z,9.4
2018-08-27T05:08:51.359Z,9.5
2018-08-27T05:09:51.275Z,9.5
2018-08-27T05:10:51.192Z,9.4
2018-08-27T05:11:51.107Z,9.6
2018-08-27T05:12:51.009Z,9.6
2018-08-27T05:13:51.412Z,9.6
2018-08-27T05:14:51.358Z,9.7
2018-08-27T05:15:51.294Z,9.7
2018-08-27T05:16:51.227Z,9.9
2018-08-27T05:17:51.149Z,9.9
2018-08-27T05:18:51.126Z,9.9
2018-08-27T05:19:51.045Z,10
2018-08-27T05:20:51.041Z,10
2018-08-27T05:21:50.945Z,10.1
2018-08-27T05:22:51.109Z,10
2018-08-27T05:23:51.731Z,10.1
2018-08-27T05:24:51.663Z,10.1
2018-08-27T05:25:51.591Z,10.1
2018-08-27T05:26:51.497Z,10.1
2018-08-27T05:27:51.403Z,10.2
2018-08-27T05:28:51.330Z,10.2
2018-08-27T05:29:51.241Z,10.2
2018-08-27T05:30:51.321Z,10.2
2018-08-27T05:31:51.897Z,10.2
2018-08-27T05:32:51.832Z,10.3
2018-08-27T05:33:52.214Z,10.3
2018-08-27T05:34:52.157Z,10.2
2018-08-27T05:35:52.091Z,10.2
2018-08-27T05:36:52.057Z,10.3
2018-08-27T05:37:51.976Z,10.4
2018-08-27T05:38:51.901Z,10.4
2018-08-27T05:39:51.829Z,10.5
2018-08-27T05:40:52.422Z,10.5
2018-08-27T05:41:52.382Z,10.6
2018-08-27T05:42:52.305Z,10.5
2018-08-27T05:43:52.681Z,10.5
2018-08-27T05:44:52.836Z,10.6
2018-08-27T05:45:52.748Z,10.6
2018-08-27T05:46:52.682Z,10.6
2018-08-27T05:47:53.287Z,10.6
2018-08-27T05:48:53.420Z,10.5
2018-08-27T05:49:53.568Z,10.5
2018-08-27T05:50:53.496Z,10.6
2018-08-27T05:51:53.448Z,10.7
2018-08-27T05:52:53.388Z,10.7
2018-08-27T05:53:53.769Z,10.7
2018-08-27T05:54:53.702Z,10.8
2018-08-27T05:55:53.630Z,10.7
2018-08-27T05:56:54.559Z,10.7
2018-08-27T05:57:55.263Z,10.7
2018-08-27T05:58:55.217Z,10.7
2018-08-27T05:59:55.140Z,10.8
2018-08-27T06:00:55.047Z,10.8
2018-08-27T06:01:55.165Z,10.8
2018-08-27T06:02:55.471Z,10.8
2018-08-27T06:03:55.871Z,10.8
2018-08-27T06:04:55.797Z,10.8
2018-08-27T06:05:58.680Z,10.8
2018-08-27T06:06:58.813Z,10.9
2018-08-27T06:07:58.760Z,11
2018-08-27T06:08:58.677Z,10.9
2018-08-27T06:09:59.278Z,11
2018-08-27T06:10:59.277Z,11.1
2018-08-27T06:11:59.360Z,11.1
2018-08-27T06:12:59.273Z,11.1
2018-08-27T06:13:59.650Z,11.1
2018-08-27T06:14:59.608Z,11.2
2018-08-27T06:15:59.702Z,11.2
2018-08-27T06:16:59.811Z,11.1
2018-08-27T06:17:59.784Z,11.2
2018-08-27T06:18:59.743Z,11.2
2018-08-27T06:19:59.664Z,11.3
2018-08-27T06:20:59.631Z,11.3
2018-08-27T06:21:59.776Z,11.3
2018-08-27T06:23:01.230Z,11.3
2018-08-27T06:24:01.623Z,11.2
2018-08-27T06:25:01.765Z,11.2
2018-08-27T06:26:02.943Z,11.3
2018-08-27T06:27:02.866Z,11.4
2018-08-27T06:28:02.780Z,11.4
2018-08-27T06:29:02.772Z,11.4
2018-08-27T06:30:02.694Z,11.4
2018-08-27T06:31:02.634Z,11.4
2018-08-27T06:32:02.567Z,11.5
2018-08-27T06:33:02.480Z,11.6
2018-08-27T06:34:02.858Z,11.6
2018-08-27T06:35:02.921Z,11.6
2018-08-27T06:36:03.014Z,11.6
2018-08-27T06:37:02.934Z,11.6
2018-08-27T06:38:03.099Z,11.6
2018-08-27T06:39:03.545Z,11.6
2018-08-27T06:40:03.489Z,11.6
2018-08-27T06:41:03.412Z,11.7
2018-08-27T06:42:04.334Z,11.7
2018-08-27T06:43:04.244Z,11.7
2018-08-27T06:44:04.637Z,11.7
2018-08-27T06:45:04.568Z,11.7
2018-08-27T06:46:04.502Z,11.7
2018-08-27T06:47:04.460Z,11.7
2018-08-27T06:48:04.382Z,11.7
2018-08-27T06:49:04.305Z,11.6
2018-08-27T06:50:04.266Z,11.7
2018-08-27T06:51:04.199Z,11.7
2018-08-27T06:52:04.115Z,11.7
2018-08-27T06:53:04.042Z,11.7
2018-08-27T06:54:04.404Z,11.6
2018-08-27T06:55:04.343Z,11.7
2018-08-27T06:56:04.315Z,11.7
2018-08-27T06:57:04.240Z,11.7
2018-08-27T06:58:04.160Z,11.8
2018-08-27T06:59:04.058Z,11.7
2018-08-27T07:00:03.979Z,11.8
2018-08-27T07:01:04.375Z,11.8
2018-08-27T07:02:04.295Z,11.8
2018-08-27T07:03:04.238Z,11.9
2018-08-27T07:04:04.616Z,11.9
2018-08-27T07:05:04.974Z,11.9
2018-08-27T07:06:04.892Z,12
2018-08-27T07:07:04.817Z,12.1
2018-08-27T07:08:04.761Z,12.1
2018-08-27T07:09:04.678Z,12.2
2018-08-27T07:10:04.599Z,12.3
2018-08-27T07:11:04.528Z,12.4
2018-08-27T07:12:04.465Z,12.5
2018-08-27T07:13:04.385Z,12.6
2018-08-27T07:14:04.732Z,12.7
2018-08-27T07:15:04.667Z,12.9
2018-08-27T07:16:04.586Z,12.8
2018-08-27T07:17:04.514Z,13
2018-08-27T07:18:04.663Z,13.1
2018-08-27T07:19:04.587Z,13.3
2018-08-27T07:20:04.676Z,13.3
2018-08-27T07:21:04.781Z,13.5
2018-08-27T07:22:04.703Z,13.5
2018-08-27T07:23:07.253Z,13.6
2018-08-27T07:24:07.614Z,13.6
2018-08-27T07:25:07.525Z,13.6
2018-08-27T07:26:07.453Z,13.6
2018-08-27T07:27:07.384Z,13.6
2018-08-27T07:28:07.290Z,13.6
2018-08-27T07:29:07.196Z,13.6
2018-08-27T07:30:07.347Z,13.6
2018-08-27T07:31:07.289Z,13.7
2018-08-27T07:32:07.221Z,13.6
2018-08-27T07:33:07.152Z,13.8
2018-08-27T07:34:07.541Z,13.8
2018-08-27T07:35:07.465Z,13.7
2018-08-27T07:36:07.650Z,13.9
2018-08-27T07:37:08.044Z,13.8
2018-08-27T07:38:07.983Z,13.8
2018-08-27T07:39:07.910Z,13.9
2018-08-27T07:40:07.900Z,13.9
2018-08-27T07:41:07.830Z,13.9
2018-08-27T07:42:07.783Z,13.9
2018-08-27T07:43:07.687Z,14
2018-08-27T07:44:08.706Z,14
2018-08-27T07:45:08.702Z,14
2018-08-27T07:46:08.632Z,14
2018-08-27T07:47:08.659Z,14.2
2018-08-27T07:48:08.649Z,14.2
2018-08-27T07:49:08.571Z,14.4
2018-08-27T07:50:08.507Z,14.5
2018-08-27T07:51:08.584Z,14.7
2018-08-27T07:52:08.698Z,14.8
2018-08-27T07:53:08.602Z,14.9
2018-08-27T07:54:08.973Z,15
2018-08-27T07:55:08.922Z,15
2018-08-27T07:56:08.858Z,15
2018-08-27T07:57:08.790Z,15.3
2018-08-27T07:58:08.951Z,15.4
2018-08-27T07:59:08.901Z,15.6
2018-08-27T08:00:08.812Z,15.8
2018-08-27T08:01:08.942Z,16.1
2018-08-27T08:02:08.871Z,16.3
2018-08-27T08:03:08.781Z,16.5
2018-08-27T08:04:09.511Z,16.7
2018-08-27T08:05:09.431Z,17
2018-08-27T08:06:09.337Z,17.2
2018-08-27T08:07:09.647Z,17.3
2018-08-27T08:08:09.759Z,17.4
2018-08-27T08:09:09.668Z,17.5
2018-08-27T08:10:09.596Z,17.8
2018-08-27T08:11:09.524Z,17.9
2018-08-27T08:12:09.465Z,17.9
2018-08-27T08:13:09.418Z,18
2018-08-27T08:14:09.785Z,18
2018-08-27T08:15:09.711Z,17.9
2018-08-27T08:16:09.627Z,17.9
2018-08-27T08:17:18.386Z,18
2018-08-27T08:18:18.308Z,18
2018-08-27T08:19:18.247Z,18
2018-08-27T08:20:18.172Z,18.1
2018-08-27T08:21:18.080Z,18.2
2018-08-27T08:22:20.977Z,18.3
2018-08-27T08:23:20.930Z,18.5
2018-08-27T08:24:21.301Z,18.6
2018-08-27T08:25:21.233Z,18.8
2018-08-27T08:26:21.161Z,19
2018-08-27T08:27:21.091Z,19
2018-08-27T08:28:21.046Z,19.1
2018-08-27T08:29:20.971Z,19.3
2018-08-27T08:30:20.881Z,19.3
2018-08-27T08:31:20.788Z,19.4
2018-08-27T08:32:20.710Z,19.2
2018-08-27T08:33:21.053Z,19.1
2018-08-27T08:34:22.366Z,19.1
2018-08-27T08:35:22.272Z,19.2
2018-08-27T08:36:22.176Z,19.2
2018-08-27T08:37:25.126Z,19.4
2018-08-27T08:38:25.084Z,19.5
2018-08-27T08:39:25.003Z,19.6
2018-08-27T08:40:24.953Z,19.6
2018-08-27T08:41:24.924Z,19.7
2018-08-27T08:42:24.841Z,19.7
2018-08-27T08:43:24.773Z,19.7
2018-08-27T08:44:25.142Z,19.6
2018-08-27T08:45:25.292Z,19.7
2018-08-27T08:46:25.202Z,19.8
2018-08-27T08:47:25.137Z,19.6
2018-08-27T08:48:25.059Z,19.7
2018-08-27T08:49:24.994Z,19.6
2018-08-27T08:50:24.923Z,19.5
2018-08-27T08:51:24.854Z,19.4
2018-08-27T08:52:24.773Z,19.6
2018-08-27T08:53:24.850Z,19.8
2018-08-27T08:54:25.594Z,19.8
2018-08-27T08:55:25.507Z,19.8
2018-08-27T08:56:25.426Z,19.8
2018-08-27T08:57:25.337Z,19.8
2018-08-27T08:58:25.251Z,19.7
2018-08-27T08:59:25.165Z,19.7
2018-08-27T09:00:27.940Z,19.7
2018-08-27T09:01:28.009Z,19.9
2018-08-27T09:02:28.020Z,19.9
2018-08-27T09:03:28.594Z,19.9
2018-08-27T09:04:28.942Z,20
2018-08-27T09:05:29.568Z,19.8
2018-08-27T09:06:29.747Z,19.8
2018-08-27T09:07:30.268Z,19.9
2018-08-27T09:08:30.379Z,19.9
2018-08-27T09:09:30.666Z,19.9
2018-08-27T09:10:30.625Z,20
2018-08-27T09:11:30.550Z,19.9
2018-08-27T09:12:30.458Z,20.1
2018-08-27T09:13:31.368Z,20.2
2018-08-27T09:14:31.759Z,20.2
2018-08-27T09:15:31.689Z,19.5
2018-08-27T09:16:31.660Z,19.6
2018-08-27T09:17:31.798Z,19.6
2018-08-27T09:18:32.065Z,19.8
2018-08-27T09:19:31.968Z,19.9
2018-08-27T09:20:31.907Z,20
2018-08-27T09:21:31.839Z,20.1
2018-08-27T09:22:31.758Z,20
2018-08-27T09:23:31.733Z,20
2018-08-27T09:24:32.289Z,20.2
2018-08-27T09:25:32.223Z,20.3
2018-08-27T09:26:32.186Z,20.5
2018-08-27T09:27:32.120Z,20.5
2018-08-27T09:28:32.053Z,20.6
2018-08-27T09:29:31.976Z,20.6
2018-08-27T09:30:31.907Z,20.6
2018-08-27T09:31:32.316Z,20.7
2018-08-27T09:32:32.544Z,20.5
2018-08-27T09:33:32.467Z,20.4
2018-08-27T09:34:33.824Z,20.5
2018-08-27T09:35:33.765Z,20.6
2018-08-27T09:36:33.738Z,20.6
2018-08-27T09:37:34.171Z,20.7
2018-08-27T09:38:34.572Z,20.7
2018-08-27T09:39:34.513Z,20.8
2018-08-27T09:40:34.441Z,20.9
2018-08-27T09:41:34.603Z,20.9
2018-08-27T09:42:34.803Z,21
2018-08-27T09:43:34.732Z,21
2018-08-27T09:44:35.080Z,21.2
2018-08-27T09:45:34.978Z,21.2
2018-08-27T09:46:34.884Z,21.2
2018-08-27T09:47:34.816Z,21.3
2018-08-27T09:48:34.742Z,21.3
2018-08-27T09:49:34.655Z,21.4
2018-08-27T09:50:34.578Z,21.4
2018-08-27T09:51:34.485Z,21.5
2018-08-27T09:52:34.545Z,21.5
2018-08-27T09:53:34.550Z,21.4
2018-08-27T09:54:34.890Z,21.5
2018-08-27T09:55:34.823Z,21.6
2018-08-27T09:56:34.760Z,21.6
2018-08-27T09:57:34.688Z,21.6
2018-08-27T09:58:34.796Z,21.5
2018-08-27T09:59:34.819Z,21.5
2018-08-27T10:00:34.755Z,21.4
2018-08-27T10:01:34.690Z,21.4
2018-08-27T10:02:34.616Z,21.4
2018-08-27T10:03:34.598Z,21.6
2018-08-27T10:04:34.969Z,21.6
2018-08-27T10:05:34.896Z,21.4
2018-08-27T10:06:34.842Z,21.5
2018-08-27T10:07:34.753Z,21.4
2018-08-27T10:08:34.656Z,21.4
2018-08-27T10:09:35.641Z,21.2
2018-08-27T10:10:35.551Z,21.2
2018-08-27T10:11:36.480Z,20.9
2018-08-27T10:12:36.400Z,20.9
2018-08-27T10:13:36.366Z,20.9
2018-08-27T10:14:36.741Z,20.9
2018-08-27T10:15:36.657Z,20.9
2018-08-27T10:16:39.559Z,20.9
2018-08-27T10:17:39.536Z,21
2018-08-27T10:18:39.442Z,21
2018-08-27T10:19:39.401Z,21
2018-08-27T10:20:39.310Z,21
2018-08-27T10:21:39.235Z,21
2018-08-27T10:22:39.730Z,21
2018-08-27T10:23:40.113Z,21.1
2018-08-27T10:24:40.747Z,21.1
2018-08-27T10:25:40.676Z,21
2018-08-27T10:26:40.580Z,21.1
2018-08-27T10:27:40.538Z,21
2018-08-27T10:28:40.458Z,21.1
2018-08-27T10:29:40.462Z,21.2
2018-08-27T10:30:40.436Z,21.2
2018-08-27T10:31:40.356Z,21.2
2018-08-27T10:32:40.260Z,21.1
2018-08-27T10:33:40.411Z,20.8
2018-08-27T10:34:40.793Z,20.7
2018-08-27T10:35:40.755Z,20.8
2018-08-27T10:36:40.736Z,20.8
2018-08-27T10:37:40.677Z,20.9
2018-08-27T10:38:40.826Z,21
2018-08-27T10:39:40.748Z,21.2
2018-08-27T10:40:40.664Z,21.2
2018-08-27T10:41:40.601Z,21.1
2018-08-27T10:42:40.698Z,21.1
2018-08-27T10:43:40.757Z,21.2
2018-08-27T10:44:41.102Z,21
2018-08-27T10:45:41.095Z,21
2018-08-27T10:46:41.034Z,21
2018-08-27T10:47:40.963Z,21
2018-08-27T10:48:44.039Z,21.2
2018-08-27T10:49:43.941Z,21.3
2018-08-27T10:50:43.867Z,21.3
2018-08-27T10:51:43.816Z,21.4
2018-08-27T10:52:43.732Z,21.4
2018-08-27T10:53:43.645Z,21.2
2018-08-27T10:54:44.010Z,21.2
2018-08-27T10:55:43.940Z,21.2
2018-08-27T10:56:43.873Z,21.2
2018-08-27T10:57:44.051Z,21.1
2018-08-27T10:58:44.577Z,21.2
2018-08-27T10:59:44.488Z,21.3
2018-08-27T11:00:44.424Z,20.9
2018-08-27T11:01:44.345Z,20.8
2018-08-27T11:02:44.278Z,20.9
2018-08-27T11:03:44.180Z,20.8
2018-08-27T11:04:44.778Z,20.7
2018-08-27T11:05:44.690Z,20.6
2018-08-27T11:06:44.619Z,20.6
2018-08-27T11:07:44.792Z,20.6
2018-08-27T11:08:44.738Z,20.5
2018-08-27T11:09:44.663Z,20.6
2018-08-27T11:10:44.902Z,20.6
2018-08-27T11:11:45.227Z,20.6
2018-08-27T11:12:45.147Z,20.6
2018-08-27T11:13:45.100Z,20.5
2018-08-27T11:14:45.492Z,20.6
2018-08-27T11:15:45.398Z,20.7
2018-08-27T11:16:45.317Z,20.8
2018-08-27T11:17:45.224Z,20.8
2018-08-27T11:18:45.198Z,20.9
2018-08-27T11:19:45.708Z,20.9
2018-08-27T11:20:46.251Z,20.9
2018-08-27T11:21:46.318Z,20.9
2018-08-27T11:22:46.242Z,20.9
2018-08-27T11:23:46.147Z,20.9
2018-08-27T11:24:46.782Z,20.9
2018-08-27T11:25:46.698Z,20.9
2018-08-27T11:26:47.442Z,20.9
2018-08-27T11:27:47.878Z,20.9
2018-08-27T11:28:47.800Z,20.7
2018-08-27T11:29:50.649Z,20.5
2018-08-27T11:30:50.564Z,20.5
2018-08-27T11:31:50.944Z,20.4
2018-08-27T11:32:51.104Z,20.5
2018-08-27T11:33:51.495Z,20.5
2018-08-27T11:34:51.891Z,20.5
2018-08-27T11:35:51.817Z,20.5
2018-08-27T11:36:51.753Z,20.5
2018-08-27T11:37:51.892Z,20.6
2018-08-27T11:38:51.808Z,20.8
2018-08-27T11:39:51.965Z,20.9
2018-08-27T11:40:51.884Z,20.9
2018-08-27T11:41:52.044Z,20.8
2018-08-27T11:42:51.972Z,20.8
2018-08-27T11:43:51.878Z,20.9
2018-08-27T11:44:52.289Z,21
2018-08-27T11:45:52.212Z,21
2018-08-27T11:46:52.153Z,21
2018-08-27T11:47:52.092Z,21
2018-08-27T11:48:52.025Z,21
2018-08-27T11:49:51.984Z,21.1
2018-08-27T11:50:52.524Z,21.1
2018-08-27T11:51:53.751Z,21.1
2018-08-27T11:52:53.676Z,21.2
2018-08-27T11:53:53.829Z,21.2
2018-08-27T11:54:54.278Z,21.2
2018-08-27T11:55:55.324Z,21.2
2018-08-27T11:56:55.246Z,21.1
2018-08-27T11:57:55.207Z,21.1
2018-08-27T11:58:58.312Z,21
2018-08-27T11:59:58.246Z,20.9
2018-08-27T12:00:58.867Z,20.9
2018-08-27T12:01:59.045Z,20.9
2018-08-27T12:02:59.320Z,21
2018-08-27T12:03:59.469Z,21.1
2018-08-27T12:04:59.896Z,21.1
2018-08-27T12:05:59.810Z,21.1
2018-08-27T12:06:59.750Z,21.1
2018-08-27T12:08:01.222Z,21.2
2018-08-27T12:09:01.583Z,21.2
2018-08-27T12:10:02.865Z,21.3
2018-08-27T12:11:02.776Z,21.3
2018-08-27T12:12:02.902Z,21.3
2018-08-27T12:13:02.810Z,21.1
2018-08-27T12:14:06.738Z,21.1
2018-08-27T12:15:07.102Z,21.1
2018-08-27T12:16:10.023Z,21
2018-08-27T12:17:09.957Z,21.1
2018-08-27T12:18:10.096Z,21.2
2018-08-27T12:19:10.014Z,21.2
2018-08-27T12:20:15.457Z,21.2
2018-08-27T12:21:15.389Z,21.2
2018-08-27T12:22:15.533Z,21.3
2018-08-27T12:23:15.453Z,21.4
2018-08-27T12:24:15.365Z,21.5
2018-08-27T12:25:16.783Z,21.5
2018-08-27T12:26:16.710Z,21.6
2018-08-27T12:27:19.331Z,21.6
2018-08-27T12:28:19.489Z,21.5
2018-08-27T12:29:20.641Z,21.6
2018-08-27T12:30:20.817Z,21.4
2018-08-27T12:31:20.745Z,21.2
2018-08-27T12:32:20.669Z,21.2
2018-08-27T12:33:20.576Z,21.2
2018-08-27T12:34:20.490Z,21.2
2018-08-27T12:35:21.080Z,21.1
2018-08-27T12:36:23.746Z,21.2
2018-08-27T12:37:23.673Z,21.2
2018-08-27T12:38:23.593Z,21.3
2018-08-27T12:39:23.493Z,21.3
2018-08-27T12:40:23.491Z,21.3
2018-08-27T12:41:23.801Z,21.3
2018-08-27T12:42:24.056Z,21.4
2018-08-27T12:43:24.690Z,21.4
2018-08-27T12:44:24.700Z,21.5
2018-08-27T12:45:25.040Z,21.6
2018-08-27T12:46:25.953Z,21.7
2018-08-27T12:47:25.857Z,21.6
2018-08-27T12:48:25.758Z,21.7
2018-08-27T12:49:25.681Z,21.6
2018-08-27T12:50:25.603Z,21.6
2018-08-27T12:51:25.914Z,21.5
2018-08-27T12:52:26.631Z,21.6
2018-08-27T12:53:26.537Z,21.6
2018-08-27T12:54:26.442Z,21.6
2018-08-27T12:55:27.500Z,21.7
2018-08-27T12:56:27.420Z,21.7
2018-08-27T12:57:27.339Z,21.7
2018-08-27T12:58:27.549Z,21.7
2018-08-27T12:59:27.964Z,21.8
2018-08-27T13:00:28.230Z,21.6
2018-08-27T13:01:28.370Z,21.6
2018-08-27T13:02:28.295Z,21.7
2018-08-27T13:03:28.221Z,21.7
2018-08-27T13:04:28.129Z,21.8
2018-08-27T13:05:28.655Z,21.8
2018-08-27T13:06:28.615Z,21.7
2018-08-27T13:07:28.644Z,21.7
2018-08-27T13:08:28.627Z,21.6
2018-08-27T13:09:28.546Z,21.6
2018-08-27T13:10:28.476Z,21.7
2018-08-27T13:11:28.802Z,21.7
2018-08-27T13:12:29.823Z,21.7
2018-08-27T13:13:30.241Z,21.6
2018-08-27T13:14:30.149Z,21.7
2018-08-27T13:15:30.560Z,21.6
2018-08-27T13:16:30.476Z,21.6
2018-08-27T13:17:30.400Z,21.6
2018-08-27T13:18:30.324Z,21.5
2018-08-27T13:19:30.238Z,21.7
2018-08-27T13:20:30.381Z,21.7
2018-08-27T13:21:30.320Z,21.8
2018-08-27T13:22:30.243Z,21.8
2018-08-27T13:23:30.176Z,21.8
2018-08-27T13:24:30.108Z,22
2018-08-27T13:25:30.539Z,22
2018-08-27T13:26:30.481Z,22
2018-08-27T13:27:30.430Z,21.9
2018-08-27T13:28:30.591Z,21.8
2018-08-27T13:29:30.503Z,21.9
2018-08-27T13:30:32.075Z,21.9
2018-08-27T13:31:33.966Z,21.9
2018-08-27T13:32:34.865Z,21.9
2018-08-27T13:33:37.766Z,21.9
2018-08-27T13:34:38.680Z,22
2018-08-27T13:35:39.264Z,22
2018-08-27T13:36:39.450Z,22.1